Time;durP1;ratioP1;P1;durP2;ratioP2;P2;SDS_P1;SDS_P2;PMS_P1;PMS_P2;Temp;Humidity;BMP_temperature;BMP_pressure;BME280_temperature;BME280_humidity;BME280_pressure;Samples;Min_cycle;Max_cycle;Signal;HPM_P1;HPM_P2
2022/08/27 11:54:46;;;;;;;;;;;13.60;93.30;;;;;;6132716;23;19927;-69
2022/08/27 11:57:14;;;;;;;;;;;13.60;93.40;;;;;;6151657;23;19975;-69
2022/08/27 11:59:42;;;;;;;;;;;13.60;93.40;;;;;;6152089;23;19904;-69
2022/08/27 12:02:18;;;;;;;;;;;13.60;93.40;;;;;;6152378;23;19991;-70
2022/08/27 12:04:44;;;;;;;;;;;13.60;93.70;;;;;;6126136;23;19912;-70
2022/08/27 12:07:16;;;;;;;;;;;13.60;93.70;;;;;;6152487;23;19939;-70
2022/08/27 12:10:05;;;;;;;;;;;13.50;94.00;;;;;;6152531;23;19915;-68
2022/08/27 12:12:51;;;;;;;;;;;13.50;94.20;;;;;;6152002;23;19984;-65
2022/08/27 12:15:18;;;;;;;;;;;13.60;94.50;;;;;;6150346;23;20549;-68
2022/08/27 12:17:45;;;;;;;;;;;13.50;94.70;;;;;;6151918;23;19940;-67
2022/08/27 12:20:17;;;;;;;;;;;13.50;94.90;;;;;;6152105;23;19908;-67
2022/08/27 12:25:34;;;;;;;;;;;13.60;95.30;;;;;;6131215;23;20351;-66
2022/08/27 12:28:02;;;;;;;;;;;13.50;95.30;;;;;;6154678;23;19956;-66
2022/08/27 12:30:31;;;;;;;;;;;13.50;95.30;;;;;;6154385;23;19904;-67
2022/08/27 12:32:57;;;;;;;;;;;13.50;95.40;;;;;;6154772;23;19905;-66
2022/08/27 12:35:42;;;;;;;;;;;13.60;95.40;;;;;;6127270;23;19988;-66
2022/08/27 12:38:16;;;;;;;;;;;13.50;95.40;;;;;;6154577;23;19912;-66
2022/08/27 12:40:52;;;;;;;;;;;13.50;95.50;;;;;;6155047;23;19961;-66
2022/08/27 12:43:20;;;;;;;;;;;13.40;95.50;;;;;;6154704;23;19913;-66
2022/08/27 12:45:48;;;;;;;;;;;13.40;95.60;;;;;;6154755;23;19905;-66
2022/08/27 12:48:19;;;;;;;;;;;13.40;95.70;;;;;;6154506;23;19936;-66
2022/08/27 12:50:50;;;;;;;;;;;13.40;95.70;;;;;;6155066;23;19905;-66
2022/08/27 12:53:25;;;;;;;;;;;13.30;95.60;;;;;;6128844;23;20288;-65
2022/08/27 12:56:12;;;;;;;;;;;13.40;95.70;;;;;;6128630;23;19939;-66
2022/08/27 12:58:45;;;;;;;;;;;13.40;95.80;;;;;;6153819;23;19908;-66
2022/08/27 13:01:22;;;;;;;;;;;13.40;95.80;;;;;;6154037;23;19905;-65
2022/08/27 13:03:49;;;;;;;;;;;13.40;95.90;;;;;;6129141;23;19917;-66
2022/08/27 13:06:15;;;;;;;;;;;13.40;95.80;;;;;;6154872;23;19966;-66
2022/08/27 13:08:42;;;;;;;;;;;13.40;95.90;;;;;;6154329;23;19966;-66
2022/08/27 13:11:09;;;;;;;;;;;13.40;95.90;;;;;;6154529;23;20202;-66
2022/08/27 13:13:36;;;;;;;;;;;13.30;95.80;;;;;;6154232;23;19923;-66
2022/08/27 13:16:03;;;;;;;;;;;13.20;95.80;;;;;;6154226;23;20252;-66
2022/08/27 13:18:29;;;;;;;;;;;13.20;95.80;;;;;;6128280;23;19905;-66
2022/08/27 13:21:28;;;;;;;;;;;13.20;95.80;;;;;;6129073;23;19962;-66
2022/08/27 13:24:02;;;;;;;;;;;13.20;95.80;;;;;;6089821;23;19920;-66
2022/08/27 13:26:32;;;;;;;;;;;13.00;95.70;;;;;;6154602;23;19909;-67
2022/08/27 13:29:02;;;;;;;;;;;13.00;95.80;;;;;;6154360;23;19905;-66
2022/08/27 13:31:30;;;;;;;;;;;12.90;95.80;;;;;;6128673;23;19953;-66
2022/08/27 13:33:57;;;;;;;;;;;12.90;95.90;;;;;;6128669;23;19908;-66
2022/08/27 13:36:28;;;;;;;;;;;12.90;95.90;;;;;;6128752;23;20271;-67
2022/08/27 13:38:55;;;;;;;;;;;13.00;95.90;;;;;;6155098;23;19983;-66
2022/08/27 13:41:24;;;;;;;;;;;12.80;95.90;;;;;;6154368;23;19905;-67
2022/08/27 13:43:51;;;;;;;;;;;12.80;95.90;;;;;;6154723;23;19912;-66
2022/08/27 13:46:21;;;;;;;;;;;12.90;96.00;;;;;;6154265;23;19904;-66
2022/08/27 13:48:48;;;;;;;;;;;12.80;95.90;;;;;;6129051;23;19956;-66
2022/08/27 13:51:15;;;;;;;;;;;12.90;96.00;;;;;;6154642;23;19908;-67
2022/08/27 13:56:31;;;;;;;;;;;12.80;96.10;;;;;;6132275;23;20244;-67
2022/08/27 13:59:29;;;;;;;;;;;12.80;96.10;;;;;;6155011;23;19955;-67
2022/08/27 14:02:00;;;;;;;;;;;12.90;96.10;;;;;;6131388;23;19920;-66
2022/08/27 14:04:37;;;;;;;;;;;13.00;96.20;;;;;;6154388;23;19923;-66
2022/08/27 14:07:08;;;;;;;;;;;12.90;96.10;;;;;;6154644;23;19975;-67
2022/08/27 14:09:39;;;;;;;;;;;13.00;96.10;;;;;;6128504;23;19933;-67
2022/08/27 14:12:07;;;;;;;;;;;13.00;96.10;;;;;;6128988;23;19984;-67
2022/08/27 14:14:38;;;;;;;;;;;13.00;96.10;;;;;;6128482;23;19912;-67
2022/08/27 14:17:07;;;;;;;;;;;12.90;96.20;;;;;;6154241;23;19912;-67
2022/08/27 14:19:34;;;;;;;;;;;13.10;96.20;;;;;;6154369;23;19911;-67
2022/08/27 14:22:00;;;;;;;;;;;13.00;96.20;;;;;;6155807;23;19939;-67
2022/08/27 14:24:30;;;;;;;;;;;13.20;96.40;;;;;;6129712;23;19931;-66
2022/08/27 14:27:02;;;;;;;;;;;13.10;96.40;;;;;;6156341;23;19909;-67
2022/08/27 14:29:28;;;;;;;;;;;13.10;96.40;;;;;;6130360;23;20213;-67
2022/08/27 14:31:55;;;;;;;;;;;13.10;96.30;;;;;;6155659;23;19908;-67
2022/08/27 14:34:22;;;;;;;;;;;13.00;96.30;;;;;;6156137;23;19975;-67
2022/08/27 14:36:48;;;;;;;;;;;13.00;96.30;;;;;;6155978;23;20279;-67
2022/08/27 14:39:15;;;;;;;;;;;13.00;96.40;;;;;;6130158;23;19909;-67
2022/08/27 14:41:41;;;;;;;;;;;13.00;96.40;;;;;;6156031;23;19904;-67
2022/08/27 14:44:08;;;;;;;;;;;13.00;96.30;;;;;;6155641;23;19913;-67
2022/08/27 14:46:35;;;;;;;;;;;13.00;96.30;;;;;;6155880;23;19905;-67
2022/08/27 14:49:09;;;;;;;;;;;13.00;96.40;;;;;;6155803;23;20221;-67
2022/08/27 14:51:36;;;;;;;;;;;12.90;96.30;;;;;;6156330;23;19905;-67
2022/08/27 14:54:03;;;;;;;;;;;12.90;96.30;;;;;;6156571;23;19909;-66
2022/08/27 14:56:29;;;;;;;;;;;12.90;96.30;;;;;;6155856;23;19920;-67
2022/08/27 14:58:56;;;;;;;;;;;12.90;96.30;;;;;;6155418;23;20008;-67
2022/08/27 15:01:23;;;;;;;;;;;12.80;96.20;;;;;;6155692;23;19908;-66
2022/08/27 15:03:50;;;;;;;;;;;12.80;96.20;;;;;;6156020;23;20203;-67
2022/08/27 15:06:17;;;;;;;;;;;12.70;96.10;;;;;;6155509;23;19991;-67
2022/08/27 15:08:43;;;;;;;;;;;12.70;96.10;;;;;;6130275;23;20198;-66
2022/08/27 15:11:29;;;;;;;;;;;12.70;96.10;;;;;;6129838;23;20039;-67
2022/08/27 15:13:56;;;;;;;;;;;12.70;96.10;;;;;;6128695;23;19912;-67
2022/08/27 15:16:27;;;;;;;;;;;12.50;96.00;;;;;;6129454;23;20348;-67
2022/08/27 15:18:53;;;;;;;;;;;12.50;96.00;;;;;;6129945;23;19904;-67
2022/08/27 15:21:20;;;;;;;;;;;12.50;95.90;;;;;;6156321;23;20213;-67
2022/08/27 15:23:46;;;;;;;;;;;12.40;95.90;;;;;;6155759;23;20001;-67
2022/08/27 15:26:13;;;;;;;;;;;12.40;95.90;;;;;;6130008;23;19905;-67
2022/08/27 15:28:40;;;;;;;;;;;12.50;95.90;;;;;;6129406;23;20373;-67
2022/08/27 15:31:07;;;;;;;;;;;12.40;95.90;;;;;;6155526;23;19983;-67
2022/08/27 15:33:33;;;;;;;;;;;12.40;95.90;;;;;;6129356;23;19905;-67
2022/08/27 15:36:00;;;;;;;;;;;12.40;95.90;;;;;;6154474;23;19936;-67
2022/08/27 15:38:26;;;;;;;;;;;12.40;96.00;;;;;;6154857;23;19913;-67
2022/08/27 15:40:53;;;;;;;;;;;12.40;95.90;;;;;;6154840;23;19905;-67
2022/08/27 15:43:20;;;;;;;;;;;12.40;95.70;;;;;;6155267;23;19966;-67
2022/08/27 15:45:46;;;;;;;;;;;12.40;95.90;;;;;;6129680;23;19911;-67
2022/08/27 15:48:13;;;;;;;;;;;12.40;95.90;;;;;;6155628;23;20224;-66
2022/08/27 15:50:39;;;;;;;;;;;12.50;96.00;;;;;;6155711;23;19915;-66
2022/08/27 15:53:06;;;;;;;;;;;12.40;96.00;;;;;;6155441;23;19908;-67
2022/08/27 15:55:34;;;;;;;;;;;12.50;96.00;;;;;;6129175;23;20307;-67
2022/08/27 15:58:01;;;;;;;;;;;12.40;95.80;;;;;;6128749;23;20248;-67
2022/08/27 16:00:28;;;;;;;;;;;12.30;95.80;;;;;;6155241;23;19905;-66
2022/08/27 16:02:55;;;;;;;;;;;12.40;95.70;;;;;;6129718;23;19908;-67
2022/08/27 16:05:22;;;;;;;;;;;12.30;95.70;;;;;;6155273;23;19909;-67
2022/08/27 16:07:48;;;;;;;;;;;12.30;95.70;;;;;;6129469;23;19904;-67
2022/08/27 16:10:15;;;;;;;;;;;12.30;95.70;;;;;;6154897;23;19908;-67
2022/08/27 16:12:42;;;;;;;;;;;12.30;95.70;;;;;;6155552;23;20338;-67
2022/08/27 16:15:09;;;;;;;;;;;12.20;95.60;;;;;;6129459;23;19916;-67
2022/08/27 16:17:35;;;;;;;;;;;12.30;95.60;;;;;;6155365;23;20320;-66
2022/08/27 16:20:02;;;;;;;;;;;12.20;95.60;;;;;;6154620;23;19904;-67
2022/08/27 16:22:29;;;;;;;;;;;12.20;95.40;;;;;;6155383;23;19905;-66
2022/08/27 16:24:56;;;;;;;;;;;12.10;95.40;;;;;;6155135;23;20287;-67
2022/08/27 16:27:22;;;;;;;;;;;12.10;95.50;;;;;;6155054;23;19912;-67
2022/08/27 16:29:49;;;;;;;;;;;12.10;95.50;;;;;;6155229;23;19905;-67
2022/08/27 16:32:16;;;;;;;;;;;12.10;95.60;;;;;;6154630;23;19904;-67
2022/08/27 16:34:43;;;;;;;;;;;12.00;95.40;;;;;;6155362;23;19952;-67
2022/08/27 16:37:10;;;;;;;;;;;12.00;95.40;;;;;;6155211;23;19908;-67
2022/08/27 16:39:36;;;;;;;;;;;12.00;95.50;;;;;;6155267;23;19936;-67
2022/08/27 16:42:03;;;;;;;;;;;12.10;95.50;;;;;;6155225;23;19995;-67
2022/08/27 16:44:30;;;;;;;;;;;12.10;95.60;;;;;;6155245;23;19917;-67
2022/08/27 16:46:57;;;;;;;;;;;11.90;95.40;;;;;;6129319;23;20246;-66
2022/08/27 16:52:08;;;;;;;;;;;11.90;95.50;;;;;;6154864;23;20252;-67
2022/08/27 16:54:34;;;;;;;;;;;12.00;95.50;;;;;;6154733;23;19916;-67
2022/08/27 16:57:01;;;;;;;;;;;12.00;95.50;;;;;;6154942;23;19916;-66
2022/08/27 16:59:27;;;;;;;;;;;11.90;95.40;;;;;;6155827;23;19909;-67
2022/08/27 17:01:54;;;;;;;;;;;11.80;95.30;;;;;;6155078;23;20348;-67
2022/08/27 17:04:21;;;;;;;;;;;11.90;95.40;;;;;;6128726;23;19987;-67
2022/08/27 17:06:50;;;;;;;;;;;11.80;95.40;;;;;;6154585;23;19911;-67
2022/08/27 17:09:17;;;;;;;;;;;11.80;95.30;;;;;;6154870;23;19940;-66
2022/08/27 17:11:44;;;;;;;;;;;11.90;95.40;;;;;;6154399;23;19905;-67
2022/08/27 17:14:11;;;;;;;;;;;11.80;95.30;;;;;;6154764;23;20336;-67
2022/08/27 17:16:39;;;;;;;;;;;11.80;95.40;;;;;;6154504;23;19904;-66
2022/08/27 17:19:05;;;;;;;;;;;11.70;95.40;;;;;;6154648;23;19905;-67
2022/08/27 17:21:32;;;;;;;;;;;11.80;95.40;;;;;;6154551;23;19904;-67
2022/08/27 17:24:01;;;;;;;;;;;11.70;95.30;;;;;;6128887;23;19945;-66
2022/08/27 17:26:27;;;;;;;;;;;11.80;95.40;;;;;;6154610;23;19964;-67
2022/08/27 17:28:54;;;;;;;;;;;11.70;95.40;;;;;;6154704;23;19951;-67
2022/08/27 17:31:27;;;;;;;;;;;11.70;95.30;;;;;;6154441;23;19991;-67
2022/08/27 17:33:53;;;;;;;;;;;11.70;95.10;;;;;;6154562;23;20279;-67
2022/08/27 17:36:20;;;;;;;;;;;11.70;95.20;;;;;;6154668;23;19956;-67
2022/08/27 17:38:47;;;;;;;;;;;11.70;95.20;;;;;;6154653;23;20307;-67
2022/08/27 17:41:13;;;;;;;;;;;11.70;95.20;;;;;;6154730;23;20433;-67
2022/08/27 17:43:40;;;;;;;;;;;11.60;95.30;;;;;;6154174;23;19991;-67
2022/08/27 17:46:07;;;;;;;;;;;11.60;95.30;;;;;;6154622;23;19905;-67
2022/08/27 17:48:34;;;;;;;;;;;11.60;95.30;;;;;;6128773;23;20272;-67
2022/08/27 17:51:00;;;;;;;;;;;11.70;95.30;;;;;;6154550;23;19905;-67
2022/08/27 17:53:27;;;;;;;;;;;11.60;95.30;;;;;;6128270;23;19941;-67
2022/08/27 17:55:54;;;;;;;;;;;11.70;95.30;;;;;;6155552;23;19916;-67
2022/08/27 17:58:20;;;;;;;;;;;11.60;95.30;;;;;;6130525;23;19917;-67
2022/08/27 18:00:47;;;;;;;;;;;11.60;95.40;;;;;;6156564;23;19952;-67
2022/08/27 18:03:17;;;;;;;;;;;11.60;95.30;;;;;;6155797;23;19909;-67
2022/08/27 18:05:45;;;;;;;;;;;11.60;95.40;;;;;;6156315;23;19931;-67
2022/08/27 18:08:12;;;;;;;;;;;11.60;95.40;;;;;;6156542;23;19912;-67
2022/08/27 18:10:38;;;;;;;;;;;11.60;95.30;;;;;;6156812;23;19904;-67
2022/08/27 18:13:06;;;;;;;;;;;11.70;95.30;;;;;;6156530;23;19908;-67
2022/08/27 18:15:33;;;;;;;;;;;11.60;95.20;;;;;;6129544;23;19904;-67
2022/08/27 18:18:00;;;;;;;;;;;11.50;95.00;;;;;;6155873;23;19971;-67
2022/08/27 18:20:27;;;;;;;;;;;11.40;95.00;;;;;;6156022;23;19916;-67
2022/08/27 18:22:54;;;;;;;;;;;11.40;95.10;;;;;;6155789;23;19939;-67
2022/08/27 18:25:25;;;;;;;;;;;11.40;95.10;;;;;;6128952;23;19983;-67
2022/08/27 18:27:56;;;;;;;;;;;11.40;95.20;;;;;;6155864;23;19905;-67
2022/08/27 18:30:22;;;;;;;;;;;11.40;95.20;;;;;;6130019;23;20325;-67
2022/08/27 18:32:49;;;;;;;;;;;11.40;95.30;;;;;;6156031;23;19900;-67
2022/08/27 18:35:20;;;;;;;;;;;11.50;95.40;;;;;;6156068;23;19936;-67
2022/08/27 18:37:46;;;;;;;;;;;11.40;95.40;;;;;;6155984;23;20869;-67
2022/08/27 18:40:13;;;;;;;;;;;11.50;95.50;;;;;;6156104;23;19912;-67
2022/08/27 18:42:40;;;;;;;;;;;11.50;95.50;;;;;;6155521;23;19908;-67
2022/08/27 18:45:10;;;;;;;;;;;11.40;95.50;;;;;;6155744;23;19920;-66
2022/08/27 18:47:37;;;;;;;;;;;11.40;95.50;;;;;;6155797;23;20273;-67
2022/08/27 18:50:05;;;;;;;;;;;11.50;95.60;;;;;;6156403;23;19940;-66
2022/08/27 18:52:31;;;;;;;;;;;11.40;95.40;;;;;;6155882;23;19928;-67
2022/08/27 18:54:58;;;;;;;;;;;11.50;95.50;;;;;;6155534;23;20376;-67
2022/08/27 18:57:25;;;;;;;;;;;11.40;95.40;;;;;;6156186;23;19916;-67
2022/08/27 18:59:51;;;;;;;;;;;11.40;95.40;;;;;;6156302;23;19905;-67
2022/08/27 19:02:18;;;;;;;;;;;11.40;95.40;;;;;;6156479;23;20383;-66
2022/08/27 19:04:45;;;;;;;;;;;11.30;95.50;;;;;;6130177;23;19909;-66
2022/08/27 19:07:12;;;;;;;;;;;11.30;95.40;;;;;;6129719;23;19913;-66
2022/08/27 19:09:38;;;;;;;;;;;11.20;95.30;;;;;;6155627;23;19909;-65
2022/08/27 19:12:05;;;;;;;;;;;11.30;95.20;;;;;;6155694;23;19936;-67
2022/08/27 19:14:32;;;;;;;;;;;11.20;95.10;;;;;;6155845;23;19955;-66
2022/08/27 19:16:59;;;;;;;;;;;11.20;95.20;;;;;;6155835;23;19905;-66
2022/08/27 19:19:26;;;;;;;;;;;11.10;95.20;;;;;;6130013;23;19915;-67
2022/08/27 19:21:52;;;;;;;;;;;11.10;95.10;;;;;;6155753;23;19976;-67
2022/08/27 19:24:19;;;;;;;;;;;11.10;95.10;;;;;;6155894;23;19913;-67
2022/08/27 19:26:46;;;;;;;;;;;11.10;95.10;;;;;;6156071;23;19909;-67
2022/08/27 19:29:13;;;;;;;;;;;11.20;95.10;;;;;;6129763;23;19905;-66
2022/08/27 19:31:39;;;;;;;;;;;11.10;95.10;;;;;;6156203;23;19909;-66
2022/08/27 19:34:06;;;;;;;;;;;11.10;95.00;;;;;;6156000;23;19912;-66
2022/08/27 19:36:33;;;;;;;;;;;11.00;95.00;;;;;;6154449;23;19908;-67
2022/08/27 19:39:00;;;;;;;;;;;11.00;95.10;;;;;;6129875;23;19963;-67
2022/08/27 19:41:26;;;;;;;;;;;11.00;94.80;;;;;;6155473;23;19944;-66
2022/08/27 19:43:53;;;;;;;;;;;10.90;94.90;;;;;;6155330;23;19916;-67
2022/08/27 19:46:20;;;;;;;;;;;11.00;95.00;;;;;;6155262;23;19947;-66
2022/08/27 19:48:47;;;;;;;;;;;11.00;95.10;;;;;;6129613;23;19959;-67
2022/08/27 19:51:13;;;;;;;;;;;11.00;95.00;;;;;;6155981;23;19939;-67
2022/08/27 19:53:40;;;;;;;;;;;11.00;95.10;;;;;;6151994;23;19916;-66
2022/08/27 19:56:07;;;;;;;;;;;11.00;95.10;;;;;;6152041;23;20391;-66
2022/08/27 19:58:34;;;;;;;;;;;10.90;94.80;;;;;;6126351;23;19912;-66
2022/08/27 20:01:00;;;;;;;;;;;10.90;95.00;;;;;;6152346;23;19919;-65
2022/08/27 20:03:27;;;;;;;;;;;10.90;94.80;;;;;;6152218;23;19957;-66
2022/08/27 20:05:54;;;;;;;;;;;11.00;95.00;;;;;;6152086;23;19905;-66
2022/08/27 20:08:21;;;;;;;;;;;10.90;94.90;;;;;;6125976;23;19931;-66
2022/08/27 20:10:48;;;;;;;;;;;10.90;95.10;;;;;;6151041;23;19912;-65
2022/08/27 20:13:14;;;;;;;;;;;10.90;95.10;;;;;;6151713;23;19916;-66
2022/08/27 20:15:41;;;;;;;;;;;10.90;95.00;;;;;;6150069;23;20023;-66
2022/08/27 20:18:08;;;;;;;;;;;11.00;95.00;;;;;;6149725;23;20251;-66
2022/08/27 20:20:34;;;;;;;;;;;10.90;95.10;;;;;;6149325;23;20347;-67
2022/08/27 20:23:04;;;;;;;;;;;10.90;94.90;;;;;;6151789;23;19991;-67
2022/08/27 20:25:31;;;;;;;;;;;10.90;95.10;;;;;;6126731;23;19904;-67
2022/08/27 20:27:57;;;;;;;;;;;11.00;95.10;;;;;;6124542;23;19978;-67
2022/08/27 20:30:24;;;;;;;;;;;11.00;95.20;;;;;;6124969;23;20251;-67
2022/08/27 20:32:51;;;;;;;;;;;10.90;95.00;;;;;;6150085;23;19915;-67
2022/08/27 20:35:18;;;;;;;;;;;10.90;94.90;;;;;;6149794;23;20011;-66
2022/08/27 20:37:45;;;;;;;;;;;10.80;94.90;;;;;;6152005;23;20407;-66
2022/08/27 20:40:13;;;;;;;;;;;10.90;94.90;;;;;;6150852;23;19908;-66
2022/08/27 20:42:40;;;;;;;;;;;10.90;94.90;;;;;;6151023;23;19952;-66
2022/08/27 20:45:07;;;;;;;;;;;10.90;95.00;;;;;;6150858;23;19919;-66
2022/08/27 20:47:33;;;;;;;;;;;10.90;95.10;;;;;;6151942;23;19909;-66
2022/08/27 20:50:01;;;;;;;;;;;10.90;95.00;;;;;;6151927;23;20347;-66
2022/08/27 20:52:28;;;;;;;;;;;11.00;95.00;;;;;;6125470;23;19905;-66
2022/08/27 20:54:54;;;;;;;;;;;10.90;95.10;;;;;;6150350;23;21540;-65
2022/08/27 20:57:21;;;;;;;;;;;11.00;95.20;;;;;;6150231;23;20251;-66
2022/08/27 21:02:32;;;;;;;;;;;11.00;95.20;;;;;;6151432;23;19952;-67
2022/08/27 21:05:04;;;;;;;;;;;11.00;95.20;;;;;;6150554;23;19966;-67
2022/08/27 21:07:31;;;;;;;;;;;11.10;95.30;;;;;;6125271;23;19911;-66
2022/08/27 21:09:57;;;;;;;;;;;11.10;95.40;;;;;;6151468;23;19916;-67
2022/08/27 21:12:25;;;;;;;;;;;11.20;95.40;;;;;;6125735;23;19998;-66
2022/08/27 21:14:51;;;;;;;;;;;11.20;95.40;;;;;;6123704;23;20328;-67
2022/08/27 21:17:18;;;;;;;;;;;11.20;95.50;;;;;;6151212;23;19908;-67
2022/08/27 21:19:44;;;;;;;;;;;11.30;95.60;;;;;;6144563;23;19909;-67
2022/08/27 21:22:11;;;;;;;;;;;11.40;95.60;;;;;;6151066;23;19913;-67
2022/08/27 21:24:38;;;;;;;;;;;11.50;95.70;;;;;;6150738;23;19956;-67
2022/08/27 21:27:04;;;;;;;;;;;11.50;95.60;;;;;;6124726;23;20292;-67
2022/08/27 21:29:31;;;;;;;;;;;11.60;95.60;;;;;;6151869;23;19909;-67
2022/08/27 21:31:57;;;;;;;;;;;11.60;95.60;;;;;;6155103;23;20252;-67
2022/08/27 21:34:26;;;;;;;;;;;11.70;95.60;;;;;;6154296;23;19960;-67
2022/08/27 21:36:53;;;;;;;;;;;11.70;95.70;;;;;;6154559;23;20328;-67
2022/08/27 21:39:20;;;;;;;;;;;11.70;95.60;;;;;;6154402;23;19979;-66
2022/08/27 21:41:46;;;;;;;;;;;11.70;95.60;;;;;;6152743;23;19904;-66
2022/08/27 21:44:13;;;;;;;;;;;11.70;95.50;;;;;;6154393;23;19916;-66
2022/08/27 21:46:39;;;;;;;;;;;11.70;95.50;;;;;;6154009;23;20328;-67
2022/08/27 21:49:06;;;;;;;;;;;11.70;95.60;;;;;;6128429;23;20232;-66
2022/08/27 21:51:33;;;;;;;;;;;11.70;95.60;;;;;;6154062;23;20335;-66
2022/08/27 21:53:59;;;;;;;;;;;11.80;95.50;;;;;;6153710;23;19905;-66
2022/08/27 21:56:26;;;;;;;;;;;11.80;95.60;;;;;;6154804;23;20415;-66
2022/08/27 21:58:53;;;;;;;;;;;11.80;95.60;;;;;;6128404;23;19908;-66
2022/08/27 22:01:19;;;;;;;;;;;11.90;95.60;;;;;;6128817;23;20032;-66
2022/08/27 22:03:49;;;;;;;;;;;11.90;95.50;;;;;;6128761;23;19983;-66
2022/08/27 22:06:16;;;;;;;;;;;11.90;95.50;;;;;;6154679;23;19940;-67
2022/08/27 22:08:42;;;;;;;;;;;11.90;95.50;;;;;;6154359;23;20344;-66
2022/08/27 22:11:09;;;;;;;;;;;12.00;95.50;;;;;;6154413;23;19987;-66
2022/08/27 22:13:36;;;;;;;;;;;12.00;95.50;;;;;;6154878;23;19912;-66
2022/08/27 22:16:02;;;;;;;;;;;12.10;95.50;;;;;;6153231;23;19909;-66
2022/08/27 22:18:29;;;;;;;;;;;12.10;95.50;;;;;;6151255;23;19911;-65
2022/08/27 22:20:57;;;;;;;;;;;12.10;95.50;;;;;;6150535;23;19960;-66
2022/08/27 22:23:24;;;;;;;;;;;12.10;95.40;;;;;;6152102;23;20236;-65
2022/08/27 22:25:50;;;;;;;;;;;12.10;95.40;;;;;;6151388;23;19915;-65
2022/08/27 22:28:17;;;;;;;;;;;12.20;95.40;;;;;;6152344;23;19908;-64
2022/08/27 22:30:44;;;;;;;;;;;12.20;95.30;;;;;;6152095;23;19931;-64
2022/08/27 22:33:11;;;;;;;;;;;12.20;95.40;;;;;;6152073;23;20246;-66
2022/08/27 22:35:37;;;;;;;;;;;12.20;95.40;;;;;;6127777;23;20256;-66
2022/08/27 22:38:04;;;;;;;;;;;12.20;95.20;;;;;;6153782;23;20279;-67
2022/08/27 22:40:31;;;;;;;;;;;12.20;95.10;;;;;;6153525;23;20029;-66
2022/08/27 22:42:57;;;;;;;;;;;12.20;95.20;;;;;;6126405;23;19917;-67
2022/08/27 22:45:24;;;;;;;;;;;12.20;95.10;;;;;;6152320;23;19988;-67
2022/08/27 22:47:51;;;;;;;;;;;12.20;95.00;;;;;;6152411;23;19909;-66
2022/08/27 22:50:18;;;;;;;;;;;12.20;95.10;;;;;;6152857;23;19963;-66
2022/08/27 22:52:44;;;;;;;;;;;12.30;95.10;;;;;;6125788;23;19915;-67
2022/08/27 22:55:12;;;;;;;;;;;12.20;95.00;;;;;;6152067;23;20460;-67
2022/08/27 22:57:38;;;;;;;;;;;12.30;95.00;;;;;;6152427;23;19915;-67
2022/08/27 23:00:10;;;;;;;;;;;12.30;94.90;;;;;;6152729;23;20229;-67
2022/08/27 23:02:37;;;;;;;;;;;12.40;94.90;;;;;;6152462;23;19911;-67
2022/08/27 23:05:04;;;;;;;;;;;12.40;94.90;;;;;;6151839;23;19916;-67
2022/08/27 23:07:30;;;;;;;;;;;12.40;95.00;;;;;;6152869;23;19944;-67
2022/08/27 23:09:57;;;;;;;;;;;12.40;94.90;;;;;;6152648;23;19915;-67
2022/08/27 23:12:24;;;;;;;;;;;12.50;95.10;;;;;;6152785;23;20252;-67
2022/08/27 23:14:51;;;;;;;;;;;12.50;94.80;;;;;;6152189;23;19905;-67
2022/08/27 23:17:18;;;;;;;;;;;12.70;94.90;;;;;;6152135;23;19916;-67
2022/08/27 23:19:44;;;;;;;;;;;12.70;94.90;;;;;;6149364;23;19992;-67
2022/08/27 23:22:11;;;;;;;;;;;12.70;95.00;;;;;;6155370;23;19908;-67
2022/08/27 23:27:27;;;;;;;;;;;12.70;95.00;;;;;;6155501;23;19912;-67
2022/08/27 23:27:30;;;;;;;;;;;12.80;95.10;;;;;;6154884;23;19912;-67
2022/08/27 23:29:57;;;;;;;;;;;12.90;95.10;;;;;;6155311;23;20240;-67
2022/08/27 23:32:23;;;;;;;;;;;13.00;95.10;;;;;;6155546;23;19909;-67
2022/08/27 23:34:50;;;;;;;;;;;13.10;95.00;;;;;;6128988;23;19930;-67
2022/08/27 23:37:16;;;;;;;;;;;13.00;94.90;;;;;;6155001;23;20210;-68
2022/08/27 23:39:43;;;;;;;;;;;13.10;95.00;;;;;;6155447;23;19906;-67
2022/08/27 23:42:10;;;;;;;;;;;13.20;94.90;;;;;;6155264;23;19951;-67
2022/08/27 23:44:36;;;;;;;;;;;13.20;94.90;;;;;;6155132;23;20339;-67
2022/08/27 23:47:03;;;;;;;;;;;13.20;95.00;;;;;;6155026;23;19935;-67
2022/08/27 23:49:31;;;;;;;;;;;13.30;95.00;;;;;;6155554;23;20030;-67
2022/08/27 23:51:57;;;;;;;;;;;13.40;95.10;;;;;;6155309;23;19904;-67
2022/08/27 23:54:24;;;;;;;;;;;13.50;95.20;;;;;;6155573;23;19905;-67
2022/08/27 23:56:50;;;;;;;;;;;13.50;95.00;;;;;;6155504;23;19913;-67
2022/08/27 23:59:17;;;;;;;;;;;13.50;94.80;;;;;;6155711;23;20312;-67
